sensor_id;sensor_type;location;lat;lon;timestamp;P1;durP1;ratioP1;P2;durP2;ratioP2
15063;SDS011;7631;52.088;5.088;2023-12-07T00:01:43;5.07;;;4.10;;
15063;SDS011;7631;52.088;5.088;2023-12-07T00:04:09;4.57;;;4.10;;
15063;SDS011;7631;52.088;5.088;2023-12-07T00:06:34;4.90;;;4.37;;
15063;SDS011;7631;52.088;5.088;2023-12-07T00:08:59;5.53;;;4.47;;
15063;SDS011;7631;52.088;5.088;2023-12-07T00:11:26;5.30;;;4.30;;
15063;SDS011;7631;52.088;5.088;2023-12-07T00:13:51;5.37;;;4.87;;
15063;SDS011;7631;52.088;5.088;2023-12-07T00:16:16;4.77;;;3.87;;
15063;SDS011;7631;52.088;5.088;2023-12-07T00:18:41;5.83;;;4.47;;
15063;SDS011;7631;52.088;5.088;2023-12-07T00:21:10;4.87;;;4.33;;
15063;SDS011;7631;52.088;5.088;2023-12-07T00:23:35;4.80;;;4.30;;
15063;SDS011;7631;52.088;5.088;2023-12-07T00:26:02;5.20;;;3.83;;
15063;SDS011;7631;52.088;5.088;2023-12-07T00:28:27;5.50;;;4.20;;
15063;SDS011;7631;52.088;5.088;2023-12-07T00:30:53;5.13;;;4.27;;
15063;SDS011;7631;52.088;5.088;2023-12-07T00:33:18;5.67;;;4.07;;
15063;SDS011;7631;52.088;5.088;2023-12-07T00:35:43;4.77;;;3.83;;
15063;SDS011;7631;52.088;5.088;2023-12-07T00:38:08;4.57;;;3.90;;
15063;SDS011;7631;52.088;5.088;2023-12-07T00:40:34;5.47;;;4.47;;
15063;SDS011;7631;52.088;5.088;2023-12-07T00:43:01;5.43;;;4.43;;
15063;SDS011;7631;52.088;5.088;2023-12-07T00:45:27;4.77;;;4.10;;
15063;SDS011;7631;52.088;5.088;2023-12-07T00:47:52;5.70;;;4.53;;
15063;SDS011;7631;52.088;5.088;2023-12-07T00:50:17;4.60;;;4.03;;
15063;SDS011;7631;52.088;5.088;2023-12-07T00:52:42;4.70;;;3.97;;
15063;SDS011;7631;52.088;5.088;2023-12-07T00:55:07;5.00;;;3.97;;
15063;SDS011;7631;52.088;5.088;2023-12-07T00:57:33;5.20;;;4.17;;
15063;SDS011;7631;52.088;5.088;2023-12-07T00:59:58;6.10;;;4.50;;
15063;SDS011;7631;52.088;5.088;2023-12-07T01:02:23;4.23;;;3.53;;
15063;SDS011;7631;52.088;5.088;2023-12-07T01:04:49;4.80;;;4.20;;
15063;SDS011;7631;52.088;5.088;2023-12-07T01:07:14;4.57;;;4.00;;
15063;SDS011;7631;52.088;5.088;2023-12-07T01:09:39;4.17;;;3.80;;
15063;SDS011;7631;52.088;5.088;2023-12-07T01:12:04;5.47;;;4.13;;
15063;SDS011;7631;52.088;5.088;2023-12-07T01:14:30;5.07;;;3.90;;
15063;SDS011;7631;52.088;5.088;2023-12-07T01:16:55;5.07;;;4.20;;
15063;SDS011;7631;52.088;5.088;2023-12-07T01:19:20;4.70;;;3.83;;
15063;SDS011;7631;52.088;5.088;2023-12-07T01:21:46;4.57;;;3.70;;
15063;SDS011;7631;52.088;5.088;2023-12-07T01:24:11;4.50;;;3.70;;
15063;SDS011;7631;52.088;5.088;2023-12-07T01:26:36;5.13;;;3.80;;
15063;SDS011;7631;52.088;5.088;2023-12-07T01:29:02;4.30;;;3.80;;
15063;SDS011;7631;52.088;5.088;2023-12-07T01:31:27;4.30;;;3.60;;
15063;SDS011;7631;52.088;5.088;2023-12-07T01:33:53;4.30;;;3.60;;
15063;SDS011;7631;52.088;5.088;2023-12-07T01:36:18;4.13;;;3.73;;
15063;SDS011;7631;52.088;5.088;2023-12-07T01:38:43;4.20;;;3.37;;
15063;SDS011;7631;52.088;5.088;2023-12-07T01:41:08;4.70;;;3.67;;
15063;SDS011;7631;52.088;5.088;2023-12-07T01:43:33;5.27;;;4.27;;
15063;SDS011;7631;52.088;5.088;2023-12-07T01:45:59;4.53;;;3.73;;
15063;SDS011;7631;52.088;5.088;2023-12-07T01:48:24;4.63;;;4.00;;
15063;SDS011;7631;52.088;5.088;2023-12-07T01:50:51;4.53;;;3.90;;
15063;SDS011;7631;52.088;5.088;2023-12-07T01:53:17;4.80;;;3.57;;
15063;SDS011;7631;52.088;5.088;2023-12-07T01:55:42;4.33;;;3.67;;
15063;SDS011;7631;52.088;5.088;2023-12-07T01:58:07;4.57;;;3.80;;
15063;SDS011;7631;52.088;5.088;2023-12-07T02:00:33;5.30;;;3.97;;
15063;SDS011;7631;52.088;5.088;2023-12-07T02:02:59;4.57;;;3.73;;
15063;SDS011;7631;52.088;5.088;2023-12-07T02:05:24;4.60;;;3.90;;
15063;SDS011;7631;52.088;5.088;2023-12-07T02:07:50;3.90;;;3.37;;
15063;SDS011;7631;52.088;5.088;2023-12-07T02:10:15;4.40;;;3.73;;
15063;SDS011;7631;52.088;5.088;2023-12-07T02:12:40;4.80;;;4.20;;
15063;SDS011;7631;52.088;5.088;2023-12-07T02:15:06;4.10;;;3.63;;
15063;SDS011;7631;52.088;5.088;2023-12-07T02:20:01;4.30;;;3.37;;
15063;SDS011;7631;52.088;5.088;2023-12-07T02:22:32;4.13;;;3.67;;
15063;SDS011;7631;52.088;5.088;2023-12-07T02:25:08;3.97;;;3.40;;
15063;SDS011;7631;52.088;5.088;2023-12-07T02:27:35;5.73;;;3.57;;
15063;SDS011;7631;52.088;5.088;2023-12-07T02:30:00;4.23;;;3.60;;
15063;SDS011;7631;52.088;5.088;2023-12-07T02:32:25;5.13;;;3.77;;
15063;SDS011;7631;52.088;5.088;2023-12-07T02:34:50;4.57;;;3.80;;
15063;SDS011;7631;52.088;5.088;2023-12-07T02:37:16;4.60;;;3.57;;
15063;SDS011;7631;52.088;5.088;2023-12-07T02:39:42;5.33;;;3.43;;
15063;SDS011;7631;52.088;5.088;2023-12-07T02:42:07;4.70;;;3.90;;
15063;SDS011;7631;52.088;5.088;2023-12-07T02:44:32;3.53;;;3.23;;
15063;SDS011;7631;52.088;5.088;2023-12-07T02:46:58;5.33;;;3.30;;
15063;SDS011;7631;52.088;5.088;2023-12-07T02:49:23;4.60;;;3.50;;
15063;SDS011;7631;52.088;5.088;2023-12-07T02:51:48;3.13;;;2.80;;
15063;SDS011;7631;52.088;5.088;2023-12-07T02:54:13;4.80;;;3.40;;
15063;SDS011;7631;52.088;5.088;2023-12-07T02:56:39;4.33;;;3.57;;
15063;SDS011;7631;52.088;5.088;2023-12-07T02:59:04;4.57;;;3.60;;
15063;SDS011;7631;52.088;5.088;2023-12-07T03:01:29;4.30;;;3.20;;
15063;SDS011;7631;52.088;5.088;2023-12-07T03:03:54;3.73;;;3.07;;
15063;SDS011;7631;52.088;5.088;2023-12-07T03:06:19;3.83;;;3.43;;
15063;SDS011;7631;52.088;5.088;2023-12-07T03:08:45;4.00;;;3.37;;
15063;SDS011;7631;52.088;5.088;2023-12-07T03:11:10;4.77;;;3.40;;
15063;SDS011;7631;52.088;5.088;2023-12-07T03:13:35;4.43;;;3.30;;
15063;SDS011;7631;52.088;5.088;2023-12-07T03:16:00;3.87;;;3.40;;
15063;SDS011;7631;52.088;5.088;2023-12-07T03:18:25;4.03;;;3.37;;
15063;SDS011;7631;52.088;5.088;2023-12-07T03:20:51;3.63;;;3.27;;
15063;SDS011;7631;52.088;5.088;2023-12-07T03:23:16;4.07;;;3.40;;
15063;SDS011;7631;52.088;5.088;2023-12-07T03:25:41;4.80;;;3.60;;
15063;SDS011;7631;52.088;5.088;2023-12-07T03:28:07;4.03;;;3.37;;
15063;SDS011;7631;52.088;5.088;2023-12-07T03:30:32;4.43;;;3.70;;
15063;SDS011;7631;52.088;5.088;2023-12-07T03:32:57;4.67;;;3.10;;
15063;SDS011;7631;52.088;5.088;2023-12-07T03:35:23;4.27;;;3.40;;
15063;SDS011;7631;52.088;5.088;2023-12-07T03:37:48;3.20;;;2.90;;
15063;SDS011;7631;52.088;5.088;2023-12-07T03:40:13;4.10;;;3.43;;
15063;SDS011;7631;52.088;5.088;2023-12-07T03:42:38;4.40;;;3.47;;
15063;SDS011;7631;52.088;5.088;2023-12-07T03:45:04;4.70;;;3.90;;
15063;SDS011;7631;52.088;5.088;2023-12-07T03:47:29;3.90;;;3.23;;
15063;SDS011;7631;52.088;5.088;2023-12-07T03:49:54;3.77;;;3.30;;
15063;SDS011;7631;52.088;5.088;2023-12-07T03:52:19;3.70;;;3.13;;
15063;SDS011;7631;52.088;5.088;2023-12-07T03:54:44;3.97;;;3.57;;
15063;SDS011;7631;52.088;5.088;2023-12-07T03:57:10;3.67;;;3.33;;
15063;SDS011;7631;52.088;5.088;2023-12-07T03:59:35;4.00;;;3.57;;
15063;SDS011;7631;52.088;5.088;2023-12-07T04:02:01;4.53;;;3.60;;
15063;SDS011;7631;52.088;5.088;2023-12-07T04:04:26;4.40;;;3.40;;
15063;SDS011;7631;52.088;5.088;2023-12-07T04:06:51;4.23;;;3.23;;
15063;SDS011;7631;52.088;5.088;2023-12-07T04:09:17;4.07;;;3.40;;
15063;SDS011;7631;52.088;5.088;2023-12-07T04:11:42;4.00;;;3.37;;
15063;SDS011;7631;52.088;5.088;2023-12-07T04:14:07;4.17;;;3.40;;
15063;SDS011;7631;52.088;5.088;2023-12-07T04:16:32;4.67;;;3.60;;
15063;SDS011;7631;52.088;5.088;2023-12-07T04:18:57;4.17;;;3.53;;
15063;SDS011;7631;52.088;5.088;2023-12-07T04:21:23;4.30;;;3.50;;
15063;SDS011;7631;52.088;5.088;2023-12-07T04:23:48;4.10;;;3.30;;
15063;SDS011;7631;52.088;5.088;2023-12-07T04:26:13;4.53;;;3.47;;
15063;SDS011;7631;52.088;5.088;2023-12-07T04:28:40;3.50;;;3.20;;
15063;SDS011;7631;52.088;5.088;2023-12-07T04:31:05;4.30;;;3.50;;
15063;SDS011;7631;52.088;5.088;2023-12-07T04:33:30;3.77;;;3.03;;
15063;SDS011;7631;52.088;5.088;2023-12-07T04:35:56;4.07;;;3.20;;
15063;SDS011;7631;52.088;5.088;2023-12-07T04:38:21;4.83;;;3.40;;
15063;SDS011;7631;52.088;5.088;2023-12-07T04:40:46;4.03;;;3.50;;
15063;SDS011;7631;52.088;5.088;2023-12-07T04:43:11;3.93;;;3.30;;
15063;SDS011;7631;52.088;5.088;2023-12-07T04:45:36;4.67;;;3.37;;
15063;SDS011;7631;52.088;5.088;2023-12-07T04:48:02;4.13;;;3.47;;
15063;SDS011;7631;52.088;5.088;2023-12-07T04:50:28;3.73;;;3.27;;
15063;SDS011;7631;52.088;5.088;2023-12-07T04:52:53;4.20;;;3.30;;
15063;SDS011;7631;52.088;5.088;2023-12-07T04:55:19;4.20;;;3.33;;
15063;SDS011;7631;52.088;5.088;2023-12-07T04:57:44;4.10;;;3.70;;
15063;SDS011;7631;52.088;5.088;2023-12-07T05:00:10;3.77;;;3.03;;
15063;SDS011;7631;52.088;5.088;2023-12-07T05:02:36;3.77;;;3.30;;
15063;SDS011;7631;52.088;5.088;2023-12-07T05:05:02;3.40;;;3.07;;
15063;SDS011;7631;52.088;5.088;2023-12-07T05:07:27;4.43;;;3.40;;
15063;SDS011;7631;52.088;5.088;2023-12-07T05:09:53;4.63;;;3.60;;
15063;SDS011;7631;52.088;5.088;2023-12-07T05:12:18;3.77;;;3.37;;
15063;SDS011;7631;52.088;5.088;2023-12-07T05:14:43;3.73;;;3.40;;
15063;SDS011;7631;52.088;5.088;2023-12-07T05:17:08;3.87;;;3.37;;
15063;SDS011;7631;52.088;5.088;2023-12-07T05:19:34;5.37;;;3.50;;
15063;SDS011;7631;52.088;5.088;2023-12-07T05:21:59;4.50;;;3.60;;
15063;SDS011;7631;52.088;5.088;2023-12-07T05:24:24;4.43;;;3.80;;
15063;SDS011;7631;52.088;5.088;2023-12-07T05:26:50;4.87;;;3.47;;
15063;SDS011;7631;52.088;5.088;2023-12-07T05:29:15;4.13;;;3.60;;
15063;SDS011;7631;52.088;5.088;2023-12-07T05:31:40;5.03;;;3.87;;
15063;SDS011;7631;52.088;5.088;2023-12-07T05:34:06;5.07;;;3.20;;
15063;SDS011;7631;52.088;5.088;2023-12-07T05:36:32;4.80;;;3.80;;
15063;SDS011;7631;52.088;5.088;2023-12-07T05:38:57;5.70;;;3.77;;
15063;SDS011;7631;52.088;5.088;2023-12-07T05:41:22;4.37;;;3.77;;
15063;SDS011;7631;52.088;5.088;2023-12-07T05:43:48;5.40;;;4.03;;
15063;SDS011;7631;52.088;5.088;2023-12-07T05:46:13;6.00;;;3.77;;
15063;SDS011;7631;52.088;5.088;2023-12-07T05:48:39;5.27;;;4.03;;
15063;SDS011;7631;52.088;5.088;2023-12-07T05:51:04;4.13;;;3.47;;
15063;SDS011;7631;52.088;5.088;2023-12-07T05:53:30;5.53;;;4.03;;
15063;SDS011;7631;52.088;5.088;2023-12-07T05:55:57;4.67;;;4.00;;
15063;SDS011;7631;52.088;5.088;2023-12-07T05:58:22;5.83;;;4.00;;
15063;SDS011;7631;52.088;5.088;2023-12-07T06:00:48;6.47;;;4.43;;
15063;SDS011;7631;52.088;5.088;2023-12-07T06:03:13;4.97;;;4.07;;
15063;SDS011;7631;52.088;5.088;2023-12-07T06:05:38;6.87;;;4.70;;
15063;SDS011;7631;52.088;5.088;2023-12-07T06:08:04;5.53;;;4.30;;
15063;SDS011;7631;52.088;5.088;2023-12-07T06:10:29;6.27;;;4.40;;
15063;SDS011;7631;52.088;5.088;2023-12-07T06:12:54;5.07;;;4.03;;
15063;SDS011;7631;52.088;5.088;2023-12-07T06:15:21;6.43;;;4.37;;
15063;SDS011;7631;52.088;5.088;2023-12-07T06:17:46;5.17;;;4.63;;
15063;SDS011;7631;52.088;5.088;2023-12-07T06:20:12;5.93;;;4.53;;
15063;SDS011;7631;52.088;5.088;2023-12-07T06:22:37;5.53;;;4.60;;
15063;SDS011;7631;52.088;5.088;2023-12-07T06:25:02;5.93;;;4.97;;
15063;SDS011;7631;52.088;5.088;2023-12-07T06:27:27;6.20;;;4.53;;
15063;SDS011;7631;52.088;5.088;2023-12-07T06:29:53;5.97;;;5.07;;
15063;SDS011;7631;52.088;5.088;2023-12-07T06:32:18;6.10;;;4.93;;
15063;SDS011;7631;52.088;5.088;2023-12-07T06:34:43;6.60;;;4.90;;
15063;SDS011;7631;52.088;5.088;2023-12-07T06:37:08;6.43;;;4.90;;
15063;SDS011;7631;52.088;5.088;2023-12-07T06:39:35;6.47;;;4.97;;
15063;SDS011;7631;52.088;5.088;2023-12-07T06:42:00;6.90;;;5.13;;
15063;SDS011;7631;52.088;5.088;2023-12-07T06:44:25;6.67;;;5.07;;
15063;SDS011;7631;52.088;5.088;2023-12-07T06:46:51;6.53;;;5.43;;
15063;SDS011;7631;52.088;5.088;2023-12-07T06:49:16;7.07;;;5.40;;
15063;SDS011;7631;52.088;5.088;2023-12-07T06:51:41;7.17;;;5.47;;
15063;SDS011;7631;52.088;5.088;2023-12-07T06:54:06;6.97;;;5.80;;
15063;SDS011;7631;52.088;5.088;2023-12-07T06:56:31;6.83;;;5.30;;
15063;SDS011;7631;52.088;5.088;2023-12-07T06:58:57;7.03;;;5.53;;
15063;SDS011;7631;52.088;5.088;2023-12-07T07:01:22;6.53;;;5.40;;
15063;SDS011;7631;52.088;5.088;2023-12-07T07:03:47;7.23;;;6.03;;
15063;SDS011;7631;52.088;5.088;2023-12-07T07:06:12;7.83;;;6.53;;
15063;SDS011;7631;52.088;5.088;2023-12-07T07:08:37;7.30;;;5.70;;
15063;SDS011;7631;52.088;5.088;2023-12-07T07:11:08;8.10;;;6.30;;
15063;SDS011;7631;52.088;5.088;2023-12-07T07:13:36;7.43;;;6.00;;
15063;SDS011;7631;52.088;5.088;2023-12-07T07:16:01;8.97;;;7.57;;
15063;SDS011;7631;52.088;5.088;2023-12-07T07:18:26;9.40;;;7.33;;
15063;SDS011;7631;52.088;5.088;2023-12-07T07:20:52;10.27;;;7.97;;
15063;SDS011;7631;52.088;5.088;2023-12-07T07:23:18;10.73;;;8.17;;
15063;SDS011;7631;52.088;5.088;2023-12-07T07:25:43;11.20;;;7.90;;
15063;SDS011;7631;52.088;5.088;2023-12-07T07:28:08;10.27;;;7.60;;
15063;SDS011;7631;52.088;5.088;2023-12-07T07:30:33;10.30;;;7.73;;
15063;SDS011;7631;52.088;5.088;2023-12-07T07:32:59;11.43;;;8.07;;
15063;SDS011;7631;52.088;5.088;2023-12-07T07:35:24;11.67;;;8.87;;
15063;SDS011;7631;52.088;5.088;2023-12-07T07:37:49;11.77;;;8.33;;
15063;SDS011;7631;52.088;5.088;2023-12-07T07:40:14;10.40;;;8.23;;
15063;SDS011;7631;52.088;5.088;2023-12-07T07:42:40;10.17;;;7.73;;
15063;SDS011;7631;52.088;5.088;2023-12-07T07:45:05;11.90;;;7.90;;
15063;SDS011;7631;52.088;5.088;2023-12-07T07:47:31;10.70;;;7.73;;
15063;SDS011;7631;52.088;5.088;2023-12-07T07:49:57;10.17;;;7.67;;
15063;SDS011;7631;52.088;5.088;2023-12-07T07:52:23;10.80;;;8.10;;
15063;SDS011;7631;52.088;5.088;2023-12-07T07:54:48;11.30;;;8.10;;
15063;SDS011;7631;52.088;5.088;2023-12-07T07:57:13;12.13;;;8.50;;
15063;SDS011;7631;52.088;5.088;2023-12-07T07:59:39;11.60;;;8.07;;
15063;SDS011;7631;52.088;5.088;2023-12-07T08:02:04;11.27;;;8.33;;
15063;SDS011;7631;52.088;5.088;2023-12-07T08:04:29;10.80;;;8.13;;
15063;SDS011;7631;52.088;5.088;2023-12-07T08:06:55;12.00;;;8.87;;
15063;SDS011;7631;52.088;5.088;2023-12-07T08:09:20;9.70;;;7.47;;
15063;SDS011;7631;52.088;5.088;2023-12-07T08:11:45;10.83;;;7.90;;
15063;SDS011;7631;52.088;5.088;2023-12-07T08:14:10;9.47;;;7.53;;
15063;SDS011;7631;52.088;5.088;2023-12-07T08:16:35;11.00;;;8.27;;
15063;SDS011;7631;52.088;5.088;2023-12-07T08:19:01;9.80;;;7.60;;
15063;SDS011;7631;52.088;5.088;2023-12-07T08:21:26;11.20;;;8.30;;
15063;SDS011;7631;52.088;5.088;2023-12-07T08:23:51;11.17;;;7.70;;
15063;SDS011;7631;52.088;5.088;2023-12-07T08:26:17;10.87;;;7.77;;
15063;SDS011;7631;52.088;5.088;2023-12-07T08:28:42;11.53;;;8.50;;
15063;SDS011;7631;52.088;5.088;2023-12-07T08:31:08;11.33;;;8.73;;
15063;SDS011;7631;52.088;5.088;2023-12-07T08:33:33;9.43;;;7.27;;
15063;SDS011;7631;52.088;5.088;2023-12-07T08:36:04;10.97;;;8.03;;
15063;SDS011;7631;52.088;5.088;2023-12-07T08:38:29;10.90;;;8.10;;
15063;SDS011;7631;52.088;5.088;2023-12-07T08:40:54;9.67;;;7.43;;
15063;SDS011;7631;52.088;5.088;2023-12-07T08:43:21;10.67;;;7.47;;
15063;SDS011;7631;52.088;5.088;2023-12-07T08:45:47;8.73;;;7.27;;
15063;SDS011;7631;52.088;5.088;2023-12-07T08:48:13;9.63;;;7.23;;
15063;SDS011;7631;52.088;5.088;2023-12-07T08:50:38;10.03;;;7.43;;
15063;SDS011;7631;52.088;5.088;2023-12-07T08:53:03;9.07;;;6.87;;
15063;SDS011;7631;52.088;5.088;2023-12-07T08:55:28;10.13;;;7.37;;
15063;SDS011;7631;52.088;5.088;2023-12-07T08:57:54;10.27;;;8.30;;
15063;SDS011;7631;52.088;5.088;2023-12-07T09:00:20;9.47;;;7.07;;
15063;SDS011;7631;52.088;5.088;2023-12-07T09:02:49;8.47;;;7.27;;
15063;SDS011;7631;52.088;5.088;2023-12-07T09:05:14;8.63;;;6.83;;
15063;SDS011;7631;52.088;5.088;2023-12-07T09:07:40;9.87;;;7.47;;
15063;SDS011;7631;52.088;5.088;2023-12-07T09:10:05;10.20;;;7.03;;
15063;SDS011;7631;52.088;5.088;2023-12-07T09:12:31;9.70;;;7.00;;
15063;SDS011;7631;52.088;5.088;2023-12-07T09:14:56;8.87;;;6.97;;
15063;SDS011;7631;52.088;5.088;2023-12-07T09:17:22;9.87;;;7.03;;
15063;SDS011;7631;52.088;5.088;2023-12-07T09:19:47;9.10;;;6.97;;
15063;SDS011;7631;52.088;5.088;2023-12-07T09:22:12;9.07;;;6.70;;
15063;SDS011;7631;52.088;5.088;2023-12-07T09:24:39;10.03;;;7.27;;
15063;SDS011;7631;52.088;5.088;2023-12-07T09:27:04;8.93;;;6.80;;
15063;SDS011;7631;52.088;5.088;2023-12-07T09:29:29;9.03;;;7.23;;
15063;SDS011;7631;52.088;5.088;2023-12-07T09:31:55;8.17;;;6.70;;
15063;SDS011;7631;52.088;5.088;2023-12-07T09:34:20;8.67;;;6.53;;
15063;SDS011;7631;52.088;5.088;2023-12-07T09:36:45;8.40;;;6.43;;
15063;SDS011;7631;52.088;5.088;2023-12-07T09:39:11;8.50;;;6.40;;
15063;SDS011;7631;52.088;5.088;2023-12-07T09:41:36;9.03;;;6.70;;
15063;SDS011;7631;52.088;5.088;2023-12-07T09:44:05;7.30;;;5.97;;
15063;SDS011;7631;52.088;5.088;2023-12-07T09:46:31;8.30;;;6.10;;
15063;SDS011;7631;52.088;5.088;2023-12-07T09:48:57;8.43;;;6.60;;
15063;SDS011;7631;52.088;5.088;2023-12-07T09:51:22;7.53;;;5.93;;
15063;SDS011;7631;52.088;5.088;2023-12-07T09:53:48;8.07;;;6.07;;
15063;SDS011;7631;52.088;5.088;2023-12-07T09:56:14;9.00;;;6.60;;
15063;SDS011;7631;52.088;5.088;2023-12-07T09:58:41;8.43;;;6.53;;
15063;SDS011;7631;52.088;5.088;2023-12-07T10:01:07;8.17;;;6.27;;
15063;SDS011;7631;52.088;5.088;2023-12-07T10:03:32;7.47;;;6.13;;
15063;SDS011;7631;52.088;5.088;2023-12-07T10:05:59;8.37;;;6.73;;
15063;SDS011;7631;52.088;5.088;2023-12-07T10:08:31;7.07;;;5.70;;
15063;SDS011;7631;52.088;5.088;2023-12-07T10:13:28;8.53;;;6.50;;
15063;SDS011;7631;52.088;5.088;2023-12-07T10:16:04;7.83;;;5.87;;
15063;SDS011;7631;52.088;5.088;2023-12-07T10:18:30;8.43;;;6.10;;
15063;SDS011;7631;52.088;5.088;2023-12-07T10:20:56;9.27;;;6.47;;
15063;SDS011;7631;52.088;5.088;2023-12-07T10:23:21;7.97;;;6.17;;
15063;SDS011;7631;52.088;5.088;2023-12-07T10:25:50;8.10;;;5.73;;
15063;SDS011;7631;52.088;5.088;2023-12-07T10:28:15;8.13;;;6.60;;
15063;SDS011;7631;52.088;5.088;2023-12-07T10:30:42;9.67;;;5.97;;
15063;SDS011;7631;52.088;5.088;2023-12-07T10:33:08;7.37;;;6.07;;
15063;SDS011;7631;52.088;5.088;2023-12-07T10:35:40;8.10;;;6.10;;
15063;SDS011;7631;52.088;5.088;2023-12-07T10:38:06;7.63;;;5.80;;
15063;SDS011;7631;52.088;5.088;2023-12-07T10:40:31;7.20;;;5.53;;
15063;SDS011;7631;52.088;5.088;2023-12-07T10:42:57;7.40;;;5.97;;
15063;SDS011;7631;52.088;5.088;2023-12-07T10:45:24;6.97;;;5.33;;
15063;SDS011;7631;52.088;5.088;2023-12-07T10:47:50;7.37;;;5.77;;
15063;SDS011;7631;52.088;5.088;2023-12-07T10:50:16;7.23;;;6.13;;
15063;SDS011;7631;52.088;5.088;2023-12-07T10:52:52;8.23;;;6.03;;
15063;SDS011;7631;52.088;5.088;2023-12-07T10:55:21;8.13;;;5.80;;
15063;SDS011;7631;52.088;5.088;2023-12-07T10:57:49;7.90;;;5.80;;
15063;SDS011;7631;52.088;5.088;2023-12-07T11:00:16;7.90;;;5.70;;
15063;SDS011;7631;52.088;5.088;2023-12-07T11:02:42;7.87;;;5.90;;
15063;SDS011;7631;52.088;5.088;2023-12-07T11:05:07;6.30;;;5.43;;
15063;SDS011;7631;52.088;5.088;2023-12-07T11:07:41;7.67;;;5.83;;
15063;SDS011;7631;52.088;5.088;2023-12-07T11:10:16;7.60;;;5.77;;
15063;SDS011;7631;52.088;5.088;2023-12-07T11:12:50;8.03;;;5.63;;
15063;SDS011;7631;52.088;5.088;2023-12-07T11:15:18;7.50;;;5.40;;
15063;SDS011;7631;52.088;5.088;2023-12-07T11:17:51;7.53;;;5.47;;
15063;SDS011;7631;52.088;5.088;2023-12-07T11:23:04;8.00;;;5.93;;
15063;SDS011;7631;52.088;5.088;2023-12-07T11:25:31;7.67;;;5.70;;
15063;SDS011;7631;52.088;5.088;2023-12-07T11:28:02;7.10;;;5.67;;
15063;SDS011;7631;52.088;5.088;2023-12-07T11:30:30;7.53;;;5.50;;
15063;SDS011;7631;52.088;5.088;2023-12-07T11:32:55;7.73;;;5.50;;
15063;SDS011;7631;52.088;5.088;2023-12-07T11:35:20;7.07;;;5.57;;
15063;SDS011;7631;52.088;5.088;2023-12-07T11:37:59;7.40;;;5.57;;
15063;SDS011;7631;52.088;5.088;2023-12-07T11:40:25;7.47;;;5.50;;
15063;SDS011;7631;52.088;5.088;2023-12-07T11:42:50;8.00;;;5.73;;
15063;SDS011;7631;52.088;5.088;2023-12-07T11:45:15;5.90;;;5.27;;
15063;SDS011;7631;52.088;5.088;2023-12-07T11:47:40;7.50;;;5.73;;
15063;SDS011;7631;52.088;5.088;2023-12-07T11:50:06;7.57;;;5.37;;
15063;SDS011;7631;52.088;5.088;2023-12-07T11:52:31;7.23;;;5.53;;
15063;SDS011;7631;52.088;5.088;2023-12-07T11:54:56;8.07;;;5.87;;
15063;SDS011;7631;52.088;5.088;2023-12-07T11:57:22;7.80;;;5.63;;
15063;SDS011;7631;52.088;5.088;2023-12-07T11:59:47;7.10;;;5.03;;
15063;SDS011;7631;52.088;5.088;2023-12-07T12:02:15;7.53;;;5.87;;
15063;SDS011;7631;52.088;5.088;2023-12-07T12:04:41;8.13;;;5.33;;
15063;SDS011;7631;52.088;5.088;2023-12-07T12:07:06;8.77;;;6.00;;
15063;SDS011;7631;52.088;5.088;2023-12-07T12:09:32;7.57;;;5.47;;
15063;SDS011;7631;52.088;5.088;2023-12-07T12:11:59;7.67;;;5.90;;
15063;SDS011;7631;52.088;5.088;2023-12-07T12:14:27;7.97;;;5.80;;
15063;SDS011;7631;52.088;5.088;2023-12-07T12:16:53;8.57;;;6.40;;
15063;SDS011;7631;52.088;5.088;2023-12-07T12:19:18;8.17;;;5.87;;
15063;SDS011;7631;52.088;5.088;2023-12-07T12:21:44;8.70;;;6.17;;
15063;SDS011;7631;52.088;5.088;2023-12-07T12:24:13;7.30;;;5.30;;
15063;SDS011;7631;52.088;5.088;2023-12-07T12:26:42;8.80;;;6.27;;
15063;SDS011;7631;52.088;5.088;2023-12-07T12:29:08;8.70;;;6.53;;
15063;SDS011;7631;52.088;5.088;2023-12-07T12:31:34;8.47;;;6.20;;
15063;SDS011;7631;52.088;5.088;2023-12-07T12:34:02;9.43;;;6.40;;
15063;SDS011;7631;52.088;5.088;2023-12-07T12:36:28;7.67;;;5.87;;
15063;SDS011;7631;52.088;5.088;2023-12-07T12:38:54;9.43;;;6.30;;
15063;SDS011;7631;52.088;5.088;2023-12-07T12:41:21;8.77;;;6.10;;
15063;SDS011;7631;52.088;5.088;2023-12-07T12:43:46;8.90;;;6.57;;
15063;SDS011;7631;52.088;5.088;2023-12-07T12:46:12;9.33;;;6.07;;
15063;SDS011;7631;52.088;5.088;2023-12-07T12:48:37;9.53;;;6.10;;
15063;SDS011;7631;52.088;5.088;2023-12-07T12:51:12;7.93;;;6.10;;
15063;SDS011;7631;52.088;5.088;2023-12-07T12:53:41;9.63;;;6.53;;
15063;SDS011;7631;52.088;5.088;2023-12-07T12:56:06;8.93;;;6.80;;
15063;SDS011;7631;52.088;5.088;2023-12-07T12:58:32;8.70;;;6.37;;
15063;SDS011;7631;52.088;5.088;2023-12-07T13:00:57;9.67;;;6.60;;
15063;SDS011;7631;52.088;5.088;2023-12-07T13:03:22;10.37;;;7.17;;
15063;SDS011;7631;52.088;5.088;2023-12-07T13:05:48;10.27;;;6.53;;
15063;SDS011;7631;52.088;5.088;2023-12-07T13:08:13;9.70;;;6.90;;
15063;SDS011;7631;52.088;5.088;2023-12-07T13:10:39;10.40;;;7.10;;
15063;SDS011;7631;52.088;5.088;2023-12-07T13:13:05;11.27;;;7.33;;
15063;SDS011;7631;52.088;5.088;2023-12-07T13:15:32;10.57;;;7.10;;
15063;SDS011;7631;52.088;5.088;2023-12-07T13:17:57;10.00;;;7.23;;
15063;SDS011;7631;52.088;5.088;2023-12-07T13:20:22;10.93;;;7.90;;
15063;SDS011;7631;52.088;5.088;2023-12-07T13:22:48;8.97;;;6.63;;
15063;SDS011;7631;52.088;5.088;2023-12-07T13:25:13;10.57;;;7.50;;
15063;SDS011;7631;52.088;5.088;2023-12-07T13:27:39;11.57;;;7.37;;
15063;SDS011;7631;52.088;5.088;2023-12-07T13:30:05;9.67;;;7.23;;
15063;SDS011;7631;52.088;5.088;2023-12-07T13:32:32;11.10;;;7.30;;
15063;SDS011;7631;52.088;5.088;2023-12-07T13:34:57;12.23;;;7.33;;
15063;SDS011;7631;52.088;5.088;2023-12-07T13:37:23;11.43;;;7.80;;
15063;SDS011;7631;52.088;5.088;2023-12-07T13:39:48;9.57;;;7.07;;
15063;SDS011;7631;52.088;5.088;2023-12-07T13:42:20;11.53;;;7.50;;
15063;SDS011;7631;52.088;5.088;2023-12-07T13:44:45;10.83;;;8.00;;
15063;SDS011;7631;52.088;5.088;2023-12-07T13:47:11;11.23;;;7.67;;
15063;SDS011;7631;52.088;5.088;2023-12-07T13:49:38;11.10;;;7.93;;
15063;SDS011;7631;52.088;5.088;2023-12-07T13:52:03;10.87;;;7.90;;
15063;SDS011;7631;52.088;5.088;2023-12-07T13:54:28;9.77;;;7.23;;
15063;SDS011;7631;52.088;5.088;2023-12-07T13:56:57;11.30;;;8.17;;
15063;SDS011;7631;52.088;5.088;2023-12-07T13:59:23;11.00;;;8.50;;
15063;SDS011;7631;52.088;5.088;2023-12-07T14:01:48;11.63;;;8.37;;
15063;SDS011;7631;52.088;5.088;2023-12-07T14:04:14;13.20;;;8.67;;
15063;SDS011;7631;52.088;5.088;2023-12-07T14:06:39;10.77;;;7.90;;
15063;SDS011;7631;52.088;5.088;2023-12-07T14:09:04;12.10;;;8.53;;
15063;SDS011;7631;52.088;5.088;2023-12-07T14:11:29;11.07;;;7.63;;
15063;SDS011;7631;52.088;5.088;2023-12-07T14:13:55;13.83;;;8.53;;
15063;SDS011;7631;52.088;5.088;2023-12-07T14:16:20;10.97;;;7.83;;
15063;SDS011;7631;52.088;5.088;2023-12-07T14:18:46;12.97;;;8.43;;
15063;SDS011;7631;52.088;5.088;2023-12-07T14:21:11;10.30;;;7.50;;
15063;SDS011;7631;52.088;5.088;2023-12-07T14:23:36;11.67;;;8.13;;
15063;SDS011;7631;52.088;5.088;2023-12-07T14:26:02;11.73;;;8.30;;
15063;SDS011;7631;52.088;5.088;2023-12-07T14:28:27;11.47;;;8.30;;
15063;SDS011;7631;52.088;5.088;2023-12-07T14:30:55;9.03;;;7.10;;
15063;SDS011;7631;52.088;5.088;2023-12-07T14:33:22;10.93;;;7.90;;
15063;SDS011;7631;52.088;5.088;2023-12-07T14:35:47;12.50;;;8.50;;
15063;SDS011;7631;52.088;5.088;2023-12-07T14:38:13;11.83;;;9.00;;
15063;SDS011;7631;52.088;5.088;2023-12-07T14:40:38;10.97;;;8.13;;
15063;SDS011;7631;52.088;5.088;2023-12-07T14:43:04;11.97;;;8.43;;
15063;SDS011;7631;52.088;5.088;2023-12-07T14:45:29;10.67;;;7.63;;
15063;SDS011;7631;52.088;5.088;2023-12-07T14:47:54;12.53;;;8.83;;
15063;SDS011;7631;52.088;5.088;2023-12-07T14:50:19;10.57;;;7.63;;
15063;SDS011;7631;52.088;5.088;2023-12-07T14:52:45;12.37;;;8.60;;
15063;SDS011;7631;52.088;5.088;2023-12-07T14:55:10;10.30;;;8.27;;
15063;SDS011;7631;52.088;5.088;2023-12-07T14:57:35;10.77;;;8.13;;